Time;durP1;ratioP1;P1;durP2;ratioP2;P2;SDS_P1;SDS_P2;PMS_P1;PMS_P2;Temp;Humidity;BMP_temperature;BMP_pressure;BME280_temperature;BME280_humidity;BME280_pressure;Samples;Min_cycle;Max_cycle;Signal;HPM_P1;HPM_P2
2021/08/11 00:01:38;;;;;;;;;5.00;3.50;;;;;25.37;50.13;101496.63;5035958;28;52684;-62
2021/08/11 00:04:04;;;;;;;;;3.75;3.75;;;;;25.36;50.07;101506.88;5036767;28;51391;-62
2021/08/11 00:06:30;;;;;;;;;2.25;2.25;;;;;25.36;50.35;101500.50;5036529;28;51185;-62
2021/08/11 00:08:55;;;;;;;;;2.50;2.50;;;;;25.36;50.21;101500.50;5036340;28;51177;-63
2021/08/11 00:11:21;;;;;;;;;3.75;3.75;;;;;25.35;50.47;101507.13;5037126;28;51041;-63
2021/08/11 00:13:46;;;;;;;;;3.25;3.25;;;;;25.35;50.46;101515.44;5036842;28;51233;-63
2021/08/11 00:16:11;;;;;;;;;3.75;3.75;;;;;25.33;50.40;101510.97;5035297;28;51223;-63
2021/08/11 00:18:37;;;;;;;;;4.25;3.25;;;;;25.33;50.29;101510.13;5035022;28;51300;-62
2021/08/11 00:21:03;;;;;;;;;2.75;2.75;;;;;25.32;50.19;101512.06;5036553;28;51009;-63
2021/08/11 00:23:28;;;;;;;;;3.25;3.25;;;;;25.32;50.44;101514.84;5036352;28;51086;-63
2021/08/11 00:25:54;;;;;;;;;3.75;3.75;;;;;25.31;50.39;101513.13;5036416;28;51117;-62
2021/08/11 00:28:24;;;;;;;;;2.25;2.00;;;;;25.32;50.25;101517.63;5037094;28;50951;-63
2021/08/11 00:30:51;;;;;;;;;4.50;4.50;;;;;25.31;50.43;101518.66;5036643;28;51906;-63
2021/08/11 00:33:17;;;;;;;;;3.75;3.50;;;;;25.31;50.42;101518.66;5036772;28;50945;-62
2021/08/11 00:35:42;;;;;;;;;3.50;3.50;;;;;25.31;50.47;101521.44;5034217;28;51220;-63
2021/08/11 00:38:07;;;;;;;;;3.25;3.25;;;;;25.31;50.62;101520.59;5036543;28;51192;-62
2021/08/11 00:40:33;;;;;;;;;4.75;4.75;;;;;25.29;50.46;101520.84;5036902;28;52160;-63
2021/08/11 00:42:59;;;;;;;;;4.25;3.25;;;;;25.29;50.57;101520.84;5037066;28;50945;-63
2021/08/11 00:45:25;;;;;;;;;3.00;3.00;;;;;25.29;50.57;101526.38;5035976;28;51064;-63
2021/08/11 00:47:52;;;;;;;;;6.00;5.00;;;;;25.29;50.46;101526.38;5036692;28;51034;-64
2021/08/11 00:50:18;;;;;;;;;4.00;4.00;;;;;25.29;50.50;101529.16;5035505;28;51947;-63
2021/08/11 00:52:44;;;;;;;;;4.50;3.00;;;;;25.29;50.53;101537.47;5035770;28;51352;-63
2021/08/11 00:55:10;;;;;;;;;2.75;2.75;;;;;25.29;50.55;101539.41;5036473;28;51165;-63
2021/08/11 00:57:37;;;;;;;;;2.25;2.25;;;;;25.29;50.49;101542.19;5036587;28;51396;-62
2021/08/11 01:00:03;;;;;;;;;7.00;3.50;;;;;25.28;50.37;101546.03;5027311;28;50951;-64
2021/08/11 01:02:30;;;;;;;;;4.00;4.00;;;;;25.28;50.58;101543.28;5034933;28;50955;-63
2021/08/11 01:04:58;;;;;;;;;3.00;3.00;;;;;25.27;50.57;101545.19;5035599;28;51108;-62
2021/08/11 01:07:26;;;;;;;;;4.00;4.00;;;;;25.27;50.45;101542.44;5035872;28;51276;-62
2021/08/11 01:09:53;;;;;;;;;3.00;3.00;;;;;25.26;50.42;101546.28;5035304;28;51203;-63
2021/08/11 01:12:25;;;;;;;;;2.75;2.75;;;;;25.26;50.51;101546.28;5036601;28;51254;-63
2021/08/11 01:14:51;;;;;;;;;3.25;3.00;;;;;25.26;50.65;101537.13;5036107;28;51081;-62
2021/08/11 01:17:18;;;;;;;;;3.00;3.00;;;;;25.26;50.47;101539.91;5036455;28;50937;-65
2021/08/11 01:19:44;;;;;;;;;2.50;1.25;;;;;25.24;50.51;101531.81;5035263;28;51093;-62
2021/08/11 01:22:16;;;;;;;;;2.50;2.50;;;;;25.23;50.52;101530.13;5036036;28;51266;-62
2021/08/11 01:25:00;;;;;;;;;3.00;3.00;;;;;25.24;50.59;101522.66;5035477;28;51062;-62
2021/08/11 01:28:03;;;;;;;;;4.25;2.75;;;;;25.21;50.28;101526.72;5035860;28;51189;-62
2021/08/11 01:30:44;;;;;;;;;2.50;2.25;;;;;25.20;50.24;101516.72;4988839;28;51792;-62
2021/08/11 01:33:47;;;;;;;;;2.25;1.00;;;;;25.19;50.25;101522.50;5018676;28;50948;-62
2021/08/11 01:36:18;;;;;;;;;2.50;2.50;;;;;25.16;50.37;101512.75;5035686;28;51096;-62
2021/08/11 01:38:50;;;;;;;;;2.00;2.00;;;;;25.16;49.76;101515.53;5035647;28;51229;-63
2021/08/11 01:41:19;;;;;;;;;2.75;1.00;;;;;25.14;49.79;101514.91;5035927;28;51183;-63
2021/08/11 01:43:46;;;;;;;;;2.00;2.00;;;;;25.13;49.92;101512.38;5035148;28;51674;-63
2021/08/11 01:46:14;;;;;;;;;1.00;1.00;;;;;25.12;50.10;101519.03;5035613;28;51221;-63
2021/08/11 01:48:42;;;;;;;;;4.00;3.00;;;;;25.09;49.53;101506.44;5034499;28;51335;-63
2021/08/11 01:51:08;;;;;;;;;2.00;2.00;;;;;25.08;49.57;101507.53;5035048;28;51824;-63
2021/08/11 01:53:34;;;;;;;;;2.25;2.25;;;;;25.07;49.26;101505.00;5035703;28;51426;-63
2021/08/11 01:56:00;;;;;;;;;2.50;2.50;;;;;25.05;49.34;101505.25;5035177;28;51182;-63
2021/08/11 01:58:29;;;;;;;;;3.00;3.00;;;;;25.04;49.72;101503.56;5034640;28;51377;-63
2021/08/11 02:00:58;;;;;;;;;2.00;2.00;;;;;25.01;49.65;101493.81;5034705;28;51995;-63
2021/08/11 02:03:24;;;;;;;;;2.00;2.00;;;;;25.02;49.33;101500.19;5033384;28;51435;-63
2021/08/11 02:05:52;;;;;;;;;1.75;1.75;;;;;25.00;49.15;101496.75;5034842;28;51408;-62
2021/08/11 02:08:19;;;;;;;;;2.00;1.00;;;;;25.00;49.59;101502.28;5032680;28;51161;-63
2021/08/11 02:10:45;;;;;;;;;4.00;3.00;;;;;24.98;49.20;101493.38;5034057;28;52151;-63
2021/08/11 02:13:11;;;;;;;;;3.00;2.00;;;;;24.96;49.35;101501.94;5035570;28;51133;-63
2021/08/11 02:15:37;;;;;;;;;2.50;2.50;;;;;24.95;49.13;101496.63;5034898;28;51225;-66
2021/08/11 02:18:03;;;;;;;;;2.00;2.00;;;;;24.95;49.07;101493.88;5035238;28;51027;-63
2021/08/11 02:20:29;;;;;;;;;2.00;1.00;;;;;24.93;49.17;101499.66;5034450;28;51815;-63
2021/08/11 02:22:55;;;;;;;;;1.25;1.00;;;;;24.92;49.11;101499.88;5034656;28;51323;-63
2021/08/11 02:25:22;;;;;;;;;2.00;2.00;;;;;24.91;49.05;101493.50;5035701;28;51066;-63
2021/08/11 02:27:50;;;;;;;;;1.25;1.00;;;;;24.90;49.00;101490.94;5033542;28;51078;-63
2021/08/11 02:30:21;;;;;;;;;2.00;2.00;;;;;24.89;49.13;101489.25;5030072;28;53334;-63
2021/08/11 02:32:52;;;;;;;;;3.25;2.00;;;;;24.88;48.99;101488.41;5015215;28;51445;-63
2021/08/11 02:35:23;;;;;;;;;1.00;1.00;;;;;24.87;48.82;101491.41;5019270;28;51399;-62
2021/08/11 02:38:09;;;;;;;;;4.50;2.00;;;;;24.86;48.88;101495.28;5034838;28;51056;-63
2021/08/11 02:41:04;;;;;;;;;1.25;1.25;;;;;24.85;48.75;101494.44;5034230;28;52055;-63
2021/08/11 02:43:47;;;;;;;;;2.50;2.00;;;;;24.82;48.86;101478.28;5035346;28;51282;-64
2021/08/11 02:46:20;;;;;;;;;2.25;2.00;;;;;24.82;48.62;101486.59;5034911;28;51258;-63
2021/08/11 02:49:06;;;;;;;;;1.00;1.00;;;;;24.81;48.56;101487.69;5034821;28;51102;-63
2021/08/11 02:51:35;;;;;;;;;2.00;2.00;;;;;24.80;48.69;101485.97;5034615;28;51929;-63
2021/08/11 02:54:05;;;;;;;;;2.00;2.00;;;;;24.78;48.66;101488.13;5034457;28;50975;-63
2021/08/11 02:56:31;;;;;;;;;2.00;2.00;;;;;24.79;48.88;101487.06;5034745;28;51135;-62
2021/08/11 02:58:58;;;;;;;;;3.25;1.50;;;;;24.77;48.85;101487.28;5034705;28;51103;-62
2021/08/11 03:01:27;;;;;;;;;1.25;1.25;;;;;24.76;48.54;101490.31;5034019;28;51940;-62
2021/08/11 03:03:52;;;;;;;;;3.00;2.00;;;;;24.76;48.56;101490.31;5034514;28;51350;-62
2021/08/11 03:06:18;;;;;;;;;3.00;1.00;;;;;24.75;48.78;101495.00;5034636;28;51117;-62
2021/08/11 03:08:44;;;;;;;;;1.00;1.00;;;;;24.74;48.74;101498.00;5034644;28;51407;-62
2021/08/11 03:11:10;;;;;;;;;3.00;2.00;;;;;24.73;48.93;101494.41;5034331;28;51078;-62
2021/08/11 03:13:37;;;;;;;;;2.00;1.75;;;;;24.73;48.66;101490.78;5034820;28;51140;-62
2021/08/11 03:16:03;;;;;;;;;1.00;1.00;;;;;24.73;48.59;101493.56;5037435;28;51235;-62
2021/08/11 03:18:32;;;;;;;;;2.50;1.75;;;;;24.70;48.77;101488.50;5037785;28;50969;-62
2021/08/11 03:20:58;;;;;;;;;1.75;1.75;;;;;24.69;48.76;101493.16;5038188;28;51128;-62
2021/08/11 03:23:23;;;;;;;;;2.00;2.00;;;;;24.69;48.88;101490.38;5038008;28;51157;-63
2021/08/11 03:25:48;;;;;;;;;1.00;1.00;;;;;24.69;48.77;101492.31;5036447;28;51046;-62
2021/08/11 03:28:14;;;;;;;;;4.00;2.50;;;;;24.67;48.99;101498.09;5037954;28;51386;-62
2021/08/11 03:30:39;;;;;;;;;1.50;1.00;;;;;24.67;48.75;101495.31;5037946;28;51940;-62
2021/08/11 03:33:05;;;;;;;;;2.75;2.25;;;;;24.66;48.97;101513.03;5037389;28;51260;-62
2021/08/11 03:35:31;;;;;;;;;1.75;1.75;;;;;24.64;48.92;101512.44;5037704;28;51157;-62
2021/08/11 03:37:56;;;;;;;;;3.00;3.00;;;;;24.64;48.76;101506.88;5038051;28;51018;-62
2021/08/11 03:40:21;;;;;;;;;1.75;1.75;;;;;24.63;48.84;101513.50;5037293;28;51720;-62
2021/08/11 03:42:47;;;;;;;;;2.00;2.00;;;;;24.64;48.89;101508.81;5037786;28;51070;-62
2021/08/11 03:45:12;;;;;;;;;1.75;1.75;;;;;24.62;49.22;101511.81;5038138;28;51162;-62
2021/08/11 03:47:42;;;;;;;;;2.00;2.00;;;;;24.62;49.20;101516.50;5036175;28;51233;-62
2021/08/11 03:50:14;;;;;;;;;2.00;2.00;;;;;24.62;49.01;101524.81;5036834;28;51070;-63
2021/08/11 03:52:40;;;;;;;;;2.00;2.00;;;;;24.61;48.80;101525.91;5037338;28;51353;-62
2021/08/11 03:55:06;;;;;;;;;1.50;1.50;;;;;24.60;48.83;101524.22;5037849;28;51010;-63
2021/08/11 03:57:32;;;;;;;;;2.25;1.00;;;;;24.59;49.17;101519.72;5037936;28;51623;-62
2021/08/11 03:59:57;;;;;;;;;1.25;1.25;;;;;24.59;49.10;101523.34;5032369;28;51945;-62
2021/08/11 04:02:23;;;;;;;;;1.00;1.00;;;;;24.58;49.21;101521.66;5035248;28;51136;-63
2021/08/11 04:04:48;;;;;;;;;1.00;1.00;;;;;24.57;49.24;101524.66;5037188;28;50981;-63
2021/08/11 04:07:13;;;;;;;;;1.00;1.00;;;;;24.57;49.44;101527.44;5037341;28;51299;-63
2021/08/11 04:09:38;;;;;;;;;2.00;2.00;;;;;24.57;49.01;101527.44;5036229;28;51695;-62
2021/08/11 04:12:04;;;;;;;;;1.00;1.00;;;;;24.56;49.21;101523.81;5037295;28;52058;-62
2021/08/11 04:14:29;;;;;;;;;2.00;2.00;;;;;24.56;49.19;101518.28;5037580;28;51085;-62
2021/08/11 04:16:55;;;;;;;;;1.00;1.00;;;;;24.55;48.91;101524.06;5037178;28;51149;-62
2021/08/11 04:19:20;;;;;;;;;1.75;1.75;;;;;24.54;49.08;101523.22;5025823;28;51883;-63
2021/08/11 04:21:45;;;;;;;;;1.00;1.00;;;;;24.53;48.87;101534.53;5017064;28;50989;-63
2021/08/11 04:24:10;;;;;;;;;1.00;1.00;;;;;24.52;49.09;101522.59;5017553;28;51063;-63
2021/08/11 04:26:36;;;;;;;;;2.00;2.00;;;;;24.52;48.92;101527.31;5023939;28;51196;-63
2021/08/11 04:29:01;;;;;;;;;1.00;1.00;;;;;24.50;48.94;101530.31;5036146;28;51960;-63
2021/08/11 04:31:26;;;;;;;;;0.75;0.75;;;;;24.51;48.76;101526.47;5036249;28;50988;-62
2021/08/11 04:33:52;;;;;;;;;1.25;1.25;;;;;24.51;49.01;101525.63;5036474;28;51070;-62
2021/08/11 04:36:17;;;;;;;;;3.00;2.25;;;;;24.51;49.06;101533.94;5037325;28;51104;-63
2021/08/11 04:38:42;;;;;;;;;1.00;1.00;;;;;24.50;49.00;101535.00;5036344;28;50918;-63
2021/08/11 04:41:08;;;;;;;;;2.50;1.00;;;;;24.48;49.00;101533.28;5036612;28;51113;-62
2021/08/11 04:43:33;;;;;;;;;1.75;1.75;;;;;24.47;48.90;101530.75;5036862;28;51183;-63
2021/08/11 04:45:59;;;;;;;;;1.00;1.00;;;;;24.47;48.91;101533.53;5037047;28;51099;-62
2021/08/11 04:48:24;;;;;;;;;2.00;2.00;;;;;24.47;48.84;101536.28;5035929;28;50997;-62
2021/08/11 04:50:49;;;;;;;;;1.00;1.00;;;;;24.47;48.90;101539.91;5036516;28;51079;-62
2021/08/11 04:53:14;;;;;;;;;1.00;1.00;;;;;24.46;48.82;101540.16;5036950;28;51498;-63
2021/08/11 04:55:40;;;;;;;;;2.00;2.00;;;;;24.44;48.86;101537.63;5037066;28;51312;-63
2021/08/11 04:58:05;;;;;;;;;2.75;1.75;;;;;24.44;48.62;101542.31;5035985;28;50982;-62
2021/08/11 05:00:30;;;;;;;;;3.00;2.00;;;;;24.44;48.84;101540.38;5035688;28;51150;-62
2021/08/11 05:02:56;;;;;;;;;2.00;1.00;;;;;24.44;49.05;101534.00;5036040;28;51181;-63
2021/08/11 05:05:23;;;;;;;;;2.00;2.00;;;;;24.44;48.83;101542.31;5036446;28;50955;-63
2021/08/11 05:07:48;;;;;;;;;1.25;1.25;;;;;24.43;48.85;101548.94;5036095;28;52690;-63
2021/08/11 05:10:16;;;;;;;;;1.50;1.50;;;;;24.43;48.95;101546.16;5025505;28;51283;-63
2021/08/11 05:12:41;;;;;;;;;1.00;1.00;;;;;24.41;49.21;101549.16;5016753;28;51106;-62
2021/08/11 05:15:07;;;;;;;;;1.00;1.00;;;;;24.42;49.08;101555.53;5017320;28;51383;-62
2021/08/11 05:17:32;;;;;;;;;1.75;1.75;;;;;24.40;49.18;101557.72;5036274;28;52029;-62
2021/08/11 05:19:58;;;;;;;;;1.00;1.00;;;;;24.41;49.24;101564.94;5035249;28;51017;-64
2021/08/11 05:22:25;;;;;;;;;1.75;1.75;;;;;24.40;49.21;101554.94;5036212;28;51342;-62
2021/08/11 05:24:51;;;;;;;;;2.00;2.00;;;;;24.40;49.28;101560.47;5036126;28;51343;-62
2021/08/11 05:27:17;;;;;;;;;1.00;1.00;;;;;24.37;49.23;101559.00;5035547;28;51084;-63
2021/08/11 05:29:44;;;;;;;;;1.00;1.00;;;;;24.38;49.45;101559.84;5035128;28;51541;-63
2021/08/11 05:32:10;;;;;;;;;1.75;1.75;;;;;24.37;49.46;101569.22;5035348;28;51695;-62
2021/08/11 05:34:36;;;;;;;;;3.75;3.75;;;;;24.37;49.07;101567.31;5036018;28;51037;-62
2021/08/11 05:37:01;;;;;;;;;2.25;2.00;;;;;24.36;49.28;101573.91;5034971;28;51142;-62
2021/08/11 05:39:27;;;;;;;;;2.50;1.00;;;;;24.35;49.50;101569.47;5035632;28;51109;-62
2021/08/11 05:41:52;;;;;;;;;1.25;1.25;;;;;24.35;49.71;101569.47;5036172;28;51157;-63
2021/08/11 05:44:19;;;;;;;;;2.50;2.50;;;;;24.35;49.53;101571.38;5035710;28;51385;-63
2021/08/11 05:46:44;;;;;;;;;3.50;2.50;;;;;24.35;49.31;101579.69;5035728;28;50930;-62
2021/08/11 05:49:11;;;;;;;;;2.75;1.75;;;;;24.34;49.51;101573.31;5034896;28;51067;-62
2021/08/11 05:51:36;;;;;;;;;2.75;2.75;;;;;24.34;49.59;101575.22;5035773;28;50935;-62
2021/08/11 05:54:03;;;;;;;;;2.00;2.00;;;;;24.34;49.71;101576.06;5036135;28;51457;-62
2021/08/11 05:56:28;;;;;;;;;2.75;2.50;;;;;24.34;49.61;101587.16;5035617;28;51094;-63
2021/08/11 05:58:53;;;;;;;;;3.00;2.00;;;;;24.35;49.94;101588.00;5032029;28;51102;-62
2021/08/11 06:01:19;;;;;;;;;3.25;1.75;;;;;24.33;49.78;101591.00;5035208;28;51034;-62
2021/08/11 06:03:44;;;;;;;;;1.50;1.50;;;;;24.32;49.75;101589.31;5035092;28;51282;-62
2021/08/11 06:06:10;;;;;;;;;4.25;3.00;;;;;24.33;49.85;101590.16;5034588;28;51100;-62
2021/08/11 06:08:35;;;;;;;;;2.75;2.75;;;;;24.33;49.81;101592.94;5034914;28;51264;-62
2021/08/11 06:11:00;;;;;;;;;1.75;1.75;;;;;24.32;50.24;101599.53;5035571;28;51137;-62
2021/08/11 06:13:26;;;;;;;;;2.00;2.00;;;;;24.33;50.08;101598.47;5035349;28;51157;-62
2021/08/11 06:15:51;;;;;;;;;5.00;3.00;;;;;24.32;49.96;101603.16;5035419;28;51142;-62
2021/08/11 06:18:18;;;;;;;;;2.25;2.25;;;;;24.31;50.33;101601.47;5034785;28;50979;-62
2021/08/11 06:20:43;;;;;;;;;2.75;1.50;;;;;24.31;50.33;101604.25;5035092;28;52535;-62
2021/08/11 06:23:08;;;;;;;;;3.00;3.00;;;;;24.31;49.94;101608.94;5035368;28;50978;-62
2021/08/11 06:25:34;;;;;;;;;4.00;4.00;;;;;24.31;50.10;101600.63;5034905;28;51102;-62
2021/08/11 06:27:59;;;;;;;;;2.00;2.00;;;;;24.31;50.23;101604.25;5035094;28;51186;-64
2021/08/11 06:30:24;;;;;;;;;2.25;2.00;;;;;24.30;50.47;101599.75;5034349;28;51166;-62
2021/08/11 06:32:49;;;;;;;;;2.00;2.00;;;;;24.31;50.07;101603.38;5034805;28;51377;-63
2021/08/11 06:35:15;;;;;;;;;4.75;2.00;;;;;24.30;50.36;101601.66;5034874;28;52405;-63
2021/08/11 06:37:48;;;;;;;;;2.50;2.25;;;;;24.31;50.07;101608.94;5035025;28;51088;-63
2021/08/11 06:40:15;;;;;;;;;4.75;3.00;;;;;24.30;50.46;101610.81;5034896;28;51114;-62
2021/08/11 06:42:41;;;;;;;;;2.00;2.00;;;;;24.31;50.44;101606.16;5035289;28;51105;-62
2021/08/11 06:45:07;;;;;;;;;4.00;3.50;;;;;24.30;50.32;101602.50;5031601;28;51871;-61
2021/08/11 06:47:33;;;;;;;;;4.00;4.00;;;;;24.31;50.38;101611.69;5032809;28;51239;-62
2021/08/11 06:49:58;;;;;;;;;3.75;3.75;;;;;24.30;50.13;101619.13;5033263;28;51289;-61
2021/08/11 06:52:23;;;;;;;;;3.00;3.00;;;;;24.31;50.44;101611.69;5035681;28;51263;-61
2021/08/11 06:54:49;;;;;;;;;3.00;2.75;;;;;24.31;50.37;101603.38;5035761;28;51612;-61
2021/08/11 06:57:14;;;;;;;;;5.00;3.50;;;;;24.30;50.70;101598.91;5037898;28;54456;-61
2021/08/11 06:59:39;;;;;;;;;3.50;3.00;;;;;24.32;50.39;101605.06;5037885;28;51136;-61
2021/08/11 07:02:05;;;;;;;;;3.50;2.50;;;;;24.31;50.85;101607.00;5034636;28;51406;-61
2021/08/11 07:04:31;;;;;;;;;4.00;4.00;;;;;24.32;50.55;101603.16;5035511;28;51097;-62
2021/08/11 07:06:56;;;;;;;;;3.00;2.25;;;;;24.33;50.24;101599.31;5026931;28;51142;-62
2021/08/11 07:09:25;;;;;;;;;2.50;2.25;;;;;24.33;50.12;101599.31;5028043;28;51047;-61
2021/08/11 07:11:50;;;;;;;;;3.00;3.00;;;;;24.36;50.55;101595.22;5026647;28;52576;-62
2021/08/11 07:14:15;;;;;;;;;2.25;2.25;;;;;24.37;50.56;101596.91;5026908;28;51877;-62
2021/08/11 07:16:41;;;;;;;;;3.00;3.00;;;;;24.37;50.33;101596.91;5037193;28;51081;-64
2021/08/11 07:19:06;;;;;;;;;3.00;3.00;;;;;24.38;50.58;101605.00;5033317;28;51164;-64
2021/08/11 07:21:31;;;;;;;;;4.00;3.00;;;;;24.41;51.47;101609.25;5036323;28;52472;-64
2021/08/11 07:23:57;;;;;;;;;4.75;2.00;;;;;24.42;51.58;101609.00;5036647;28;51799;-66
2021/08/11 07:26:22;;;;;;;;;2.00;2.00;;;;;24.45;52.08;101614.06;5036634;28;50983;-63
2021/08/11 07:28:48;;;;;;;;;5.00;1.75;;;;;24.48;52.86;101615.53;5036758;28;51074;-63
2021/08/11 07:31:13;;;;;;;;;2.00;2.00;;;;;24.51;52.94;101615.09;5036017;28;51026;-64
2021/08/11 07:33:38;;;;;;;;;4.00;4.00;;;;;24.54;53.23;101619.31;5034612;28;51960;-64
2021/08/11 07:36:04;;;;;;;;;4.00;2.50;;;;;24.56;52.87;101623.53;5036731;28;51033;-64
2021/08/11 07:38:29;;;;;;;;;1.25;1.25;;;;;24.58;52.28;101626.06;5035824;28;51121;-66
2021/08/11 07:40:55;;;;;;;;;4.50;2.25;;;;;24.60;52.38;101635.88;5037009;28;51099;-62
2021/08/11 07:43:20;;;;;;;;;2.00;2.00;;;;;24.62;52.43;101627.31;5034551;28;51391;-60
2021/08/11 07:45:45;;;;;;;;;2.75;2.50;;;;;24.64;52.34;101626.00;5031168;28;51710;-61
2021/08/11 07:48:11;;;;;;;;;3.75;3.50;;;;;24.66;52.49;101634.94;5036349;28;51629;-64
2021/08/11 07:50:39;;;;;;;;;4.00;3.00;;;;;24.69;52.52;101631.69;5028545;28;52418;-63
2021/08/11 07:53:05;;;;;;;;;3.25;2.00;;;;;24.71;52.40;101628.69;5018610;28;52789;-64
2021/08/11 07:55:31;;;;;;;;;2.75;2.75;;;;;24.72;52.23;101624.84;5021754;28;51820;-67
2021/08/11 07:57:56;;;;;;;;;3.00;3.00;;;;;24.74;52.27;101619.91;5029815;28;51312;-64
2021/08/11 08:00:22;;;;;;;;;3.25;3.25;;;;;24.75;51.43;101628.00;5034976;28;51618;-62
2021/08/11 08:02:49;;;;;;;;;3.50;2.50;;;;;24.77;51.14;101623.06;5036081;28;51128;-61
2021/08/11 08:05:15;;;;;;;;;4.50;4.25;;;;;24.80;50.98;101620.91;5034422;28;51164;-61
2021/08/11 08:07:40;;;;;;;;;5.50;3.75;;;;;24.82;50.78;101611.28;5034698;28;51197;-61
2021/08/11 08:10:07;;;;;;;;;3.75;3.75;;;;;24.83;50.54;101604.66;5033442;28;51070;-61
2021/08/11 08:12:33;;;;;;;;;5.50;4.00;;;;;24.85;50.22;101607.19;5036496;28;52570;-60
2021/08/11 08:14:58;;;;;;;;;4.00;4.00;;;;;24.87;50.42;101602.28;5034320;28;51421;-59
2021/08/11 08:17:23;;;;;;;;;6.25;4.50;;;;;24.90;50.33;101599.03;5033577;28;51207;-61
2021/08/11 08:19:49;;;;;;;;;5.00;3.50;;;;;24.93;50.48;101601.34;5033793;28;51173;-62
2021/08/11 08:22:16;;;;;;;;;5.00;5.00;;;;;24.93;50.57;101602.19;5034712;28;51109;-61
2021/08/11 08:24:42;;;;;;;;;5.75;4.50;;;;;24.95;50.71;101601.94;5032489;28;51467;-61
2021/08/11 08:27:07;;;;;;;;;4.50;3.25;;;;;24.97;50.45;101605.31;5030817;28;51146;-61
2021/08/11 08:29:33;;;;;;;;;4.50;3.75;;;;;24.99;50.21;101605.94;5018319;28;51013;-64
2021/08/11 08:31:58;;;;;;;;;5.75;3.50;;;;;25.02;50.23;101602.75;5035308;28;51201;-63
2021/08/11 08:34:23;;;;;;;;;4.50;2.25;;;;;25.05;49.91;101607.81;5035840;28;51072;-60
2021/08/11 08:36:49;;;;;;;;;5.00;4.25;;;;;25.06;49.76;101617.81;5036164;28;51102;-60
2021/08/11 08:39:14;;;;;;;;;5.00;5.00;;;;;25.08;49.69;101615.66;5036598;28;51193;-60
2021/08/11 08:41:42;;;;;;;;;5.75;5.75;;;;;25.10;49.70;101626.50;5036252;28;51042;-61
2021/08/11 08:44:08;;;;;;;;;7.25;5.00;;;;;25.09;50.04;101611.78;5036521;28;50972;-60
2021/08/11 08:46:34;;;;;;;;;5.00;3.00;;;;;25.11;49.79;101615.16;5035701;28;50955;-68
2021/08/11 08:49:01;;;;;;;;;5.50;4.50;;;;;25.13;50.55;101607.50;5034507;28;51890;-60
2021/08/11 08:51:30;;;;;;;;;5.75;5.75;;;;;25.13;50.50;101604.72;5035417;28;51565;-59
2021/08/11 08:53:56;;;;;;;;;5.50;4.00;;;;;25.16;50.04;101603.41;5034817;28;51926;-62
2021/08/11 08:56:21;;;;;;;;;7.25;6.25;;;;;25.17;49.86;101603.16;5034870;28;51041;-54
2021/08/11 08:58:47;;;;;;;;;6.75;5.00;;;;;25.18;49.60;101602.06;5035552;28;51346;-55
2021/08/11 09:01:12;;;;;;;;;8.00;4.25;;;;;25.19;49.53;101609.31;5030158;28;51033;-64
2021/08/11 09:03:38;;;;;;;;;7.25;6.75;;;;;25.22;49.23;101610.75;5029500;28;51030;-63
2021/08/11 09:06:03;;;;;;;;;5.50;3.25;;;;;25.24;49.13;101606.69;5032386;28;51250;-62
2021/08/11 09:08:29;;;;;;;;;6.00;4.75;;;;;25.24;49.12;101609.47;5031254;28;51574;-63
2021/08/11 09:10:54;;;;;;;;;5.00;4.50;;;;;25.26;49.21;101623.94;5031300;28;51848;-63
2021/08/11 09:13:22;;;;;;;;;6.00;6.00;;;;;25.27;49.08;101611.75;5032229;28;51346;-63
2021/08/11 09:15:49;;;;;;;;;6.25;5.00;;;;;25.27;48.95;101611.75;5033209;28;51383;-60
2021/08/11 09:18:23;;;;;;;;;5.75;5.75;;;;;25.27;49.44;101602.59;5030288;28;51117;-62
2021/08/11 09:21:11;;;;;;;;;4.00;3.00;;;;;25.28;49.03;101598.72;5030399;28;51882;-61
2021/08/11 09:23:43;;;;;;;;;4.75;4.75;;;;;25.27;49.30;101597.03;5029371;28;51165;-62
2021/08/11 09:26:12;;;;;;;;;5.50;5.50;;;;;25.28;49.85;101604.28;5030716;28;51321;-63
2021/08/11 09:28:40;;;;;;;;;8.50;4.50;;;;;25.29;49.87;101601.25;5030255;28;52055;-64
2021/08/11 09:31:26;;;;;;;;;4.00;3.00;;;;;25.30;49.48;101600.19;5031623;28;52960;-63
2021/08/11 09:33:57;;;;;;;;;8.00;6.00;;;;;25.31;49.65;101609.34;5029360;28;51973;-63
2021/08/11 09:36:23;;;;;;;;;7.00;6.00;;;;;25.31;49.51;101603.78;5029182;28;51275;-63
2021/08/11 09:39:02;;;;;;;;;5.50;4.25;;;;;25.32;49.02;101606.34;5029310;28;51055;-63
2021/08/11 09:41:28;;;;;;;;;5.00;5.00;;;;;25.33;49.03;101605.28;5029943;28;52077;-61
2021/08/11 09:44:14;;;;;;;;;3.00;3.00;;;;;25.34;49.08;101597.78;5031958;28;51259;-62
2021/08/11 09:46:40;;;;;;;;;6.75;5.50;;;;;25.36;48.85;101600.31;5031044;28;51575;-60
2021/08/11 09:49:24;;;;;;;;;7.25;6.00;;;;;25.38;49.22;101603.69;5034195;28;51110;-63
2021/08/11 09:51:58;;;;;;;;;7.00;5.50;;;;;25.39;49.08;101605.38;5025062;28;51045;-63
2021/08/11 09:54:24;;;;;;;;;7.00;5.25;;;;;25.40;48.64;101601.53;5034790;28;51098;-64
2021/08/11 09:56:49;;;;;;;;;4.50;4.50;;;;;25.39;48.88;101597.91;5034305;28;51103;-63
2021/08/11 09:59:14;;;;;;;;;5.50;5.00;;;;;25.40;49.42;101590.44;5035348;28;51097;-63
2021/08/11 10:01:40;;;;;;;;;9.00;7.50;;;;;25.42;49.07;101593.81;5033718;28;51899;-62
2021/08/11 10:04:06;;;;;;;;;5.50;5.50;;;;;25.42;49.08;101599.34;5035265;28;51124;-62
2021/08/11 10:06:32;;;;;;;;;5.75;4.50;;;;;25.41;49.05;101592.97;5035515;28;51043;-62
2021/08/11 10:09:18;;;;;;;;;4.75;4.75;;;;;25.44;49.18;101591.66;5035417;28;51034;-62
2021/08/11 10:11:44;;;;;;;;;5.25;5.25;;;;;25.44;49.20;101577.81;5034914;28;51895;-62
2021/08/11 10:14:12;;;;;;;;;5.75;4.25;;;;;25.46;49.17;101581.19;5035222;28;50967;-62
2021/08/11 10:16:39;;;;;;;;;4.00;4.00;;;;;25.47;49.25;101585.63;5035261;28;51070;-62
2021/08/11 10:19:06;;;;;;;;;4.75;4.25;;;;;25.48;49.44;101579.00;5034363;28;51350;-62
2021/08/11 10:21:33;;;;;;;;;4.75;2.25;;;;;25.48;48.97;101570.69;5034936;28;51837;-62
2021/08/11 10:24:03;;;;;;;;;9.25;6.00;;;;;25.49;49.11;101577.91;5036458;28;51348;-62
2021/08/11 10:26:29;;;;;;;;;5.25;4.00;;;;;25.49;49.29;101572.38;5038995;28;51116;-62
2021/08/11 10:28:55;;;;;;;;;3.75;3.75;;;;;25.48;49.39;101581.78;5038830;28;51080;-62
2021/08/11 10:31:21;;;;;;;;;7.75;4.25;;;;;25.49;49.06;101578.75;5038367;28;51603;-62
2021/08/11 10:33:49;;;;;;;;;4.00;4.00;;;;;25.50;48.85;101585.16;5038490;28;51330;-62
2021/08/11 10:36:15;;;;;;;;;4.25;4.00;;;;;25.51;49.19;101570.19;5038127;28;51078;-62
2021/08/11 10:38:43;;;;;;;;;4.25;4.25;;;;;25.50;48.91;101576.84;5038791;28;51168;-62
2021/08/11 10:41:10;;;;;;;;;5.75;4.00;;;;;25.50;49.15;101580.44;5038496;28;51710;-62
2021/08/11 10:43:36;;;;;;;;;3.00;3.00;;;;;25.52;49.00;101580.22;5038593;28;51360;-62
2021/08/11 10:46:10;;;;;;;;;4.25;4.25;;;;;25.52;48.88;101580.22;5038460;28;51014;-62
2021/08/11 10:48:36;;;;;;;;;3.75;3.75;;;;;25.52;49.06;101581.03;5037569;28;51050;-62
2021/08/11 10:51:01;;;;;;;;;7.00;5.25;;;;;25.53;49.14;101591.09;5036576;28;52517;-62
2021/08/11 10:53:27;;;;;;;;;2.50;2.50;;;;;25.53;49.11;101585.53;5036426;28;51101;-62
2021/08/11 10:55:54;;;;;;;;;7.50;3.00;;;;;25.54;49.18;101575.28;5038042;28;50970;-62
2021/08/11 10:58:37;;;;;;;;;3.00;3.00;;;;;25.54;48.73;101581.69;5038100;28;51203;-62
2021/08/11 11:01:04;;;;;;;;;3.50;3.50;;;;;25.54;49.00;101578.91;5037884;28;51143;-62
2021/08/11 11:03:52;;;;;;;;;4.00;4.00;;;;;25.54;48.83;101561.41;5038012;28;51337;-62
2021/08/11 11:06:18;;;;;;;;;5.00;4.75;;;;;25.54;48.98;101564.19;5038221;28;51072;-62
2021/08/11 11:08:44;;;;;;;;;3.25;3.25;;;;;25.55;48.58;101560.34;5038064;28;51205;-62
2021/08/11 11:11:28;;;;;;;;;5.25;5.00;;;;;25.54;48.76;101565.03;5037457;28;52680;-62
2021/08/11 11:13:53;;;;;;;;;4.00;3.00;;;;;25.54;48.79;101562.25;5037669;28;50934;-62
2021/08/11 11:16:19;;;;;;;;;5.75;5.25;;;;;25.53;48.78;101557.81;5037851;28;51124;-62
2021/08/11 11:19:06;;;;;;;;;5.25;3.00;;;;;25.54;48.87;101553.94;5036999;28;51236;-62
2021/08/11 11:21:33;;;;;;;;;3.00;3.00;;;;;25.53;48.77;101546.72;5037097;28;52288;-62
2021/08/11 11:23:58;;;;;;;;;5.25;4.75;;;;;25.52;48.85;101547.75;5037028;28;51209;-62
2021/08/11 11:26:34;;;;;;;;;3.00;3.00;;;;;25.53;48.75;101546.72;5037453;28;51233;-61